• Join FlightAware (Why Join?)
  • Login
  • US Flag 
01:33PM EDT


 

Airport Tracker/Info


-or-


 

Live Flight TrackerFlight Track Log ✈ FLG3580 ✈ 10-Jun-2013 ✈ KDLH - KMSP

Flight Track Log - Related Links

Times and Time Zones

All times are in EDT time to prevent confusion due to time zone crossing. See the FLG3580 flight status page for this flight to view local times or setup timezone preferences in your user account.

Time Position Orientation Groundspeed Altitude Reporting Facility
EDT Latitude Longitude Course Direction KTS MPH feet Rate Location/Type
01:45PM 46.6911 -92.3952 223° Southwest  Level FlightAware Approximate
01:45PM 46.7414 -92.3919 221° Southwest 210 242 7,200  Level Minneapolis Center
01:46PM 46.6411 -92.4621 223° Southwest  Level FlightAware Approximate
01:46PM 46.6822 -92.4700 222° Southwest 253 291 9,600  Level Minneapolis Center
01:47PM 46.5910 -92.5288 222° Southwest  Level FlightAware Approximate
01:47PM 46.6203 -92.5536 223° Southwest 284 327 10,800  Level Minneapolis Center
01:48PM 46.5287 -92.6138 225° Southwest  Level FlightAware Approximate
01:48PM 46.5486 -92.6492 223° Southwest 314 361 11,900  Level Minneapolis Center
01:49PM 46.4678 -92.7009 225° Southwest  Level FlightAware Approximate
01:49PM 46.4736 -92.7500 223° Southwest 339 390 13,700  Level Minneapolis Center
01:50PM 46.4052 -92.7852 221° Southwest  Level FlightAware Approximate
01:50PM 46.3861 -92.8297 212° Southwest 360 414 13,900  Level Minneapolis Center
01:51PM 46.2800 -92.9250 212° Southwest 371 427 13,900  Level Minneapolis Center
01:52PM 46.1939 -92.9983 211° Southwest 368 423 14,000 -120 Climbing Minneapolis Center
01:53PM 46.1072 -93.0758 212° Southwest 366 421 13,700 -660 Descending Minneapolis Center
01:54PM 46.0164 -93.1606 213° Southwest 379 436 12,700 -960 Descending Minneapolis Center
01:55PM 45.9250 -93.2394 211° Southwest 384 442 11,800 -840 Descending Minneapolis Center
01:56PM 45.8172 -93.3378 212° Southwest 383 441 11,000 -420 Descending Minneapolis Center
01:57PM 45.7317 -93.4125 211° Southwest 366 421 11,000  Level Minneapolis Center
01:58PM 45.6475 -93.4850 211° Southwest 355 409 11,000  Level Minneapolis Center
01:59PM 45.5636 -93.5583 211° Southwest 353 406 11,000  Level Minneapolis Center
02:00PM 45.4656 -93.5531 178° South 376 433 11,000  Level Minneapolis Center
02:01PM 45.3511 -93.4839 157° South 375 432 11,000  Level Minneapolis Center
02:02PM 45.2531 -93.4303 159° South 378 435 11,000 -60 Level Minneapolis Center
02:03PM 45.1561 -93.3794 160° South 374 430 10,900  Descending Minneapolis Center
02:04PM 45.0692 -93.3356 160° South 336 387 11,000 -540 Climbing Minneapolis Center
02:05PM 44.9825 -93.3147 170° South 319 367 9,900 -1,020 Descending Minneapolis Center
02:06PM 44.8914 -93.2944 171° South 273 314 8,900 -1,080 Descending Minneapolis Center
02:07PM 44.8228 -93.2900 177° South 252 290 7,700 -1,200 Descending Minneapolis Center
02:08PM 44.7567 -93.3022 187° South 249 287 6,400 -1,260 Descending Minneapolis Center
02:09PM 44.6972 -93.3139 188° South 222 255 5,100 -1,200 Descending Minneapolis Center
02:11PM 44.6531 -93.2575 138° Southeast 232 267 4,000 -540 Descending Minneapolis Center
02:12PM 44.6883 -93.1975 50° Northeast 227 261 4,000  Level Minneapolis Center